sensor_id;sensor_type;location;lat;lon;timestamp;temperature;humidity
38428;DHT22;24211;49.980;19.776;2022-07-29T00:01:42;19.90;92.00
38428;DHT22;24211;49.980;19.776;2022-07-29T00:04:10;20.00;94.10
38428;DHT22;24211;49.980;19.776;2022-07-29T00:06:37;20.10;92.10
38428;DHT22;24211;49.980;19.776;2022-07-29T00:09:05;20.00;92.50
38428;DHT22;24211;49.980;19.776;2022-07-29T00:11:32;20.10;93.20
38428;DHT22;24211;49.980;19.776;2022-07-29T00:14:00;20.30;91.20
38428;DHT22;24211;49.980;19.776;2022-07-29T00:16:28;20.10;93.50
38428;DHT22;24211;49.980;19.776;2022-07-29T00:18:55;19.90;91.90
38428;DHT22;24211;49.980;19.776;2022-07-29T00:21:27;20.20;91.40
38428;DHT22;24211;49.980;19.776;2022-07-29T00:23:54;20.00;92.70
38428;DHT22;24211;49.980;19.776;2022-07-29T00:26:22;20.20;91.60
38428;DHT22;24211;49.980;19.776;2022-07-29T00:28:49;20.20;92.50
38428;DHT22;24211;49.980;19.776;2022-07-29T00:31:16;19.90;91.80
38428;DHT22;24211;49.980;19.776;2022-07-29T00:33:44;19.80;93.00
38428;DHT22;24211;49.980;19.776;2022-07-29T00:36:11;19.60;94.50
38428;DHT22;24211;49.980;19.776;2022-07-29T00:38:38;19.70;92.50
38428;DHT22;24211;49.980;19.776;2022-07-29T00:41:08;19.70;92.60
38428;DHT22;24211;49.980;19.776;2022-07-29T00:43:35;19.50;94.70
38428;DHT22;24211;49.980;19.776;2022-07-29T00:46:02;19.40;95.00
38428;DHT22;24211;49.980;19.776;2022-07-29T00:48:30;19.20;93.60
38428;DHT22;24211;49.980;19.776;2022-07-29T00:50:58;19.40;93.40
38428;DHT22;24211;49.980;19.776;2022-07-29T00:53:29;19.40;93.00
38428;DHT22;24211;49.980;19.776;2022-07-29T00:55:58;19.30;94.50
38428;DHT22;24211;49.980;19.776;2022-07-29T00:58:26;19.30;95.10
38428;DHT22;24211;49.980;19.776;2022-07-29T01:00:54;19.30;93.50
38428;DHT22;24211;49.980;19.776;2022-07-29T01:03:21;19.10;93.90
38428;DHT22;24211;49.980;19.776;2022-07-29T01:05:49;18.90;96.10
38428;DHT22;24211;49.980;19.776;2022-07-29T01:08:18;18.80;95.70
38428;DHT22;24211;49.980;19.776;2022-07-29T01:10:47;18.70;96.70
38428;DHT22;24211;49.980;19.776;2022-07-29T01:13:16;18.40;97.70
38428;DHT22;24211;49.980;19.776;2022-07-29T01:15:49;18.50;96.70
38428;DHT22;24211;49.980;19.776;2022-07-29T01:18:27;18.90;96.70
38428;DHT22;24211;49.980;19.776;2022-07-29T01:21:44;19.00;95.00
38428;DHT22;24211;49.980;19.776;2022-07-29T01:27:45;18.90;96.70
38428;DHT22;24211;49.980;19.776;2022-07-29T01:30:15;18.60;98.00
38428;DHT22;24211;49.980;19.776;2022-07-29T01:32:47;18.50;96.90
38428;DHT22;24211;49.980;19.776;2022-07-29T01:35:38;18.40;98.50
38428;DHT22;24211;49.980;19.776;2022-07-29T01:42:29;18.80;95.70
38428;DHT22;24211;49.980;19.776;2022-07-29T01:45:16;19.00;95.30
38428;DHT22;24211;49.980;19.776;2022-07-29T01:48:24;18.80;96.70
38428;DHT22;24211;49.980;19.776;2022-07-29T01:51:19;18.70;96.60
38428;DHT22;24211;49.980;19.776;2022-07-29T01:53:55;18.20;98.60
38428;DHT22;24211;49.980;19.776;2022-07-29T01:56:51;18.10;99.10
38428;DHT22;24211;49.980;19.776;2022-07-29T01:59:23;18.00;99.00
38428;DHT22;24211;49.980;19.776;2022-07-29T02:01:55;18.20;97.70
38428;DHT22;24211;49.980;19.776;2022-07-29T02:04:27;18.20;98.30
38428;DHT22;24211;49.980;19.776;2022-07-29T02:07:02;18.30;97.90
38428;DHT22;24211;49.980;19.776;2022-07-29T02:09:34;17.90;99.30
38428;DHT22;24211;49.980;19.776;2022-07-29T02:12:06;17.70;99.80
38428;DHT22;24211;49.980;19.776;2022-07-29T02:14:50;17.70;99.90
38428;DHT22;24211;49.980;19.776;2022-07-29T02:17:33;17.80;98.90
38428;DHT22;24211;49.980;19.776;2022-07-29T02:20:08;17.70;99.90
38428;DHT22;24211;49.980;19.776;2022-07-29T02:22:39;17.80;99.70
38428;DHT22;24211;49.980;19.776;2022-07-29T02:25:08;17.50;99.90
38428;DHT22;24211;49.980;19.776;2022-07-29T02:27:41;17.40;99.90
38428;DHT22;24211;49.980;19.776;2022-07-29T02:30:10;17.40;99.90
38428;DHT22;24211;49.980;19.776;2022-07-29T02:32:40;17.50;99.90
38428;DHT22;24211;49.980;19.776;2022-07-29T02:35:10;17.60;99.30
38428;DHT22;24211;49.980;19.776;2022-07-29T02:37:41;17.60;99.90
38428;DHT22;24211;49.980;19.776;2022-07-29T02:40:11;17.50;99.90
38428;DHT22;24211;49.980;19.776;2022-07-29T02:42:43;17.70;99.70
38428;DHT22;24211;49.980;19.776;2022-07-29T02:45:13;17.50;99.90
38428;DHT22;24211;49.980;19.776;2022-07-29T02:47:43;17.80;99.80
38428;DHT22;24211;49.980;19.776;2022-07-29T02:50:23;17.70;99.50
38428;DHT22;24211;49.980;19.776;2022-07-29T02:53:22;17.80;99.90
38428;DHT22;24211;49.980;19.776;2022-07-29T02:55:58;17.60;99.90
38428;DHT22;24211;49.980;19.776;2022-07-29T02:58:38;17.80;99.20
38428;DHT22;24211;49.980;19.776;2022-07-29T03:01:24;17.70;99.90
38428;DHT22;24211;49.980;19.776;2022-07-29T03:03:56;17.70;99.90
38428;DHT22;24211;49.980;19.776;2022-07-29T03:06:32;17.80;99.90
38428;DHT22;24211;49.980;19.776;2022-07-29T03:09:06;17.70;99.90
38428;DHT22;24211;49.980;19.776;2022-07-29T03:11:41;17.60;99.90
38428;DHT22;24211;49.980;19.776;2022-07-29T03:14:18;17.60;99.90
38428;DHT22;24211;49.980;19.776;2022-07-29T03:16:48;17.60;98.90
38428;DHT22;24211;49.980;19.776;2022-07-29T03:19:18;17.70;99.20
38428;DHT22;24211;49.980;19.776;2022-07-29T03:21:47;17.90;98.50
38428;DHT22;24211;49.980;19.776;2022-07-29T03:24:32;18.00;98.50
38428;DHT22;24211;49.980;19.776;2022-07-29T03:27:02;18.20;98.00
38428;DHT22;24211;49.980;19.776;2022-07-29T03:29:31;17.90;98.70
38428;DHT22;24211;49.980;19.776;2022-07-29T03:32:04;17.70;99.80
38428;DHT22;24211;49.980;19.776;2022-07-29T03:34:36;17.50;99.90
38428;DHT22;24211;49.980;19.776;2022-07-29T03:37:05;17.30;99.50
38428;DHT22;24211;49.980;19.776;2022-07-29T03:39:36;17.50;99.10
38428;DHT22;24211;49.980;19.776;2022-07-29T03:42:10;17.60;99.90
38428;DHT22;24211;49.980;19.776;2022-07-29T03:44:43;17.30;99.70
38428;DHT22;24211;49.980;19.776;2022-07-29T03:47:13;17.40;99.40
38428;DHT22;24211;49.980;19.776;2022-07-29T03:49:47;17.40;99.90
38428;DHT22;24211;49.980;19.776;2022-07-29T03:52:18;17.40;99.90
38428;DHT22;24211;49.980;19.776;2022-07-29T03:54:45;17.50;99.90
38428;DHT22;24211;49.980;19.776;2022-07-29T03:57:15;17.50;99.10
38428;DHT22;24211;49.980;19.776;2022-07-29T03:59:44;17.80;98.40
38428;DHT22;24211;49.980;19.776;2022-07-29T04:02:12;17.90;98.80
38428;DHT22;24211;49.980;19.776;2022-07-29T04:04:43;18.00;98.20
38428;DHT22;24211;49.980;19.776;2022-07-29T04:07:15;18.10;99.90
38428;DHT22;24211;49.980;19.776;2022-07-29T04:09:42;18.00;99.90
38428;DHT22;24211;49.980;19.776;2022-07-29T04:12:10;17.80;99.90
38428;DHT22;24211;49.980;19.776;2022-07-29T04:14:37;17.90;99.20
38428;DHT22;24211;49.980;19.776;2022-07-29T04:17:05;17.80;99.90
38428;DHT22;24211;49.980;19.776;2022-07-29T04:19:32;17.80;99.90
38428;DHT22;24211;49.980;19.776;2022-07-29T04:22:01;17.90;99.90
38428;DHT22;24211;49.980;19.776;2022-07-29T04:24:29;18.00;99.90
38428;DHT22;24211;49.980;19.776;2022-07-29T04:26:56;17.90;99.90
38428;DHT22;24211;49.980;19.776;2022-07-29T04:29:24;18.20;99.90
38428;DHT22;24211;49.980;19.776;2022-07-29T04:31:51;18.20;99.90
38428;DHT22;24211;49.980;19.776;2022-07-29T04:34:18;18.20;99.90
38428;DHT22;24211;49.980;19.776;2022-07-29T04:36:46;18.30;99.90
38428;DHT22;24211;49.980;19.776;2022-07-29T04:39:14;18.40;99.90
38428;DHT22;24211;49.980;19.776;2022-07-29T04:41:49;18.60;99.90
38428;DHT22;24211;49.980;19.776;2022-07-29T04:44:21;18.70;99.90
38428;DHT22;24211;49.980;19.776;2022-07-29T04:46:54;18.70;99.90
38428;DHT22;24211;49.980;19.776;2022-07-29T04:49:22;19.10;99.70
38428;DHT22;24211;49.980;19.776;2022-07-29T04:51:50;19.40;99.00
38428;DHT22;24211;49.980;19.776;2022-07-29T04:54:17;19.40;99.10
38428;DHT22;24211;49.980;19.776;2022-07-29T04:56:45;19.50;98.90
38428;DHT22;24211;49.980;19.776;2022-07-29T04:59:13;19.60;99.10
38428;DHT22;24211;49.980;19.776;2022-07-29T05:01:41;19.70;98.50
38428;DHT22;24211;49.980;19.776;2022-07-29T05:04:08;19.80;98.10
38428;DHT22;24211;49.980;19.776;2022-07-29T05:06:35;19.80;98.50
38428;DHT22;24211;49.980;19.776;2022-07-29T05:09:03;19.80;98.10
38428;DHT22;24211;49.980;19.776;2022-07-29T05:11:30;20.00;98.00
38428;DHT22;24211;49.980;19.776;2022-07-29T05:13:57;20.30;97.90
38428;DHT22;24211;49.980;19.776;2022-07-29T05:16:25;20.30;96.90
38428;DHT22;24211;49.980;19.776;2022-07-29T05:18:52;20.40;97.20
38428;DHT22;24211;49.980;19.776;2022-07-29T05:21:19;20.70;96.90
38428;DHT22;24211;49.980;19.776;2022-07-29T05:23:47;20.90;96.70
38428;DHT22;24211;49.980;19.776;2022-07-29T05:26:14;21.30;96.50
38428;DHT22;24211;49.980;19.776;2022-07-29T05:28:41;21.40;95.90
38428;DHT22;24211;49.980;19.776;2022-07-29T05:31:09;21.40;95.40
38428;DHT22;24211;49.980;19.776;2022-07-29T05:33:36;21.50;95.30
38428;DHT22;24211;49.980;19.776;2022-07-29T05:36:04;21.50;95.20
38428;DHT22;24211;49.980;19.776;2022-07-29T05:38:35;21.70;95.10
38428;DHT22;24211;49.980;19.776;2022-07-29T05:41:04;21.70;94.70
38428;DHT22;24211;49.980;19.776;2022-07-29T05:43:31;21.90;94.30
38428;DHT22;24211;49.980;19.776;2022-07-29T05:45:59;22.10;94.60
38428;DHT22;24211;49.980;19.776;2022-07-29T05:48:27;22.20;94.40
38428;DHT22;24211;49.980;19.776;2022-07-29T05:50:55;22.60;94.20
38428;DHT22;24211;49.980;19.776;2022-07-29T05:53:23;22.80;94.10
38428;DHT22;24211;49.980;19.776;2022-07-29T05:55:50;23.40;93.60
38428;DHT22;24211;49.980;19.776;2022-07-29T05:58:19;23.60;92.90
38428;DHT22;24211;49.980;19.776;2022-07-29T06:00:47;23.50;92.20
38428;DHT22;24211;49.980;19.776;2022-07-29T06:03:14;23.20;92.30
38428;DHT22;24211;49.980;19.776;2022-07-29T06:05:42;23.70;92.70
38428;DHT22;24211;49.980;19.776;2022-07-29T06:08:10;24.00;91.70
38428;DHT22;24211;49.980;19.776;2022-07-29T06:10:37;24.20;91.80
38428;DHT22;24211;49.980;19.776;2022-07-29T06:13:04;24.30;91.40
38428;DHT22;24211;49.980;19.776;2022-07-29T06:15:32;24.20;90.80
38428;DHT22;24211;49.980;19.776;2022-07-29T06:18:00;24.20;91.30
38428;DHT22;24211;49.980;19.776;2022-07-29T06:20:29;24.30;90.90
38428;DHT22;24211;49.980;19.776;2022-07-29T06:22:58;24.60;91.30
38428;DHT22;24211;49.980;19.776;2022-07-29T06:25:27;25.10;90.50
38428;DHT22;24211;49.980;19.776;2022-07-29T06:27:57;25.00;89.40
38428;DHT22;24211;49.980;19.776;2022-07-29T06:30:25;25.20;90.40
38428;DHT22;24211;49.980;19.776;2022-07-29T06:32:53;25.10;90.00
38428;DHT22;24211;49.980;19.776;2022-07-29T06:35:20;25.10;89.60
38428;DHT22;24211;49.980;19.776;2022-07-29T06:38:09;25.00;88.80
38428;DHT22;24211;49.980;19.776;2022-07-29T06:40:56;25.80;88.00
38428;DHT22;24211;49.980;19.776;2022-07-29T06:43:35;25.40;87.70
38428;DHT22;24211;49.980;19.776;2022-07-29T06:46:21;25.40;87.60
38428;DHT22;24211;49.980;19.776;2022-07-29T06:48:49;25.80;88.20
38428;DHT22;24211;49.980;19.776;2022-07-29T06:51:19;26.10;86.70
38428;DHT22;24211;49.980;19.776;2022-07-29T06:53:51;25.90;87.40
38428;DHT22;24211;49.980;19.776;2022-07-29T06:56:39;25.60;87.40
38428;DHT22;24211;49.980;19.776;2022-07-29T06:59:09;26.10;87.30
38428;DHT22;24211;49.980;19.776;2022-07-29T07:01:39;26.00;87.30
38428;DHT22;24211;49.980;19.776;2022-07-29T07:04:09;26.50;87.30
38428;DHT22;24211;49.980;19.776;2022-07-29T07:06:37;26.60;86.80
38428;DHT22;24211;49.980;19.776;2022-07-29T07:09:05;26.70;86.20
38428;DHT22;24211;49.980;19.776;2022-07-29T07:11:33;27.00;86.00
38428;DHT22;24211;49.980;19.776;2022-07-29T07:14:02;26.60;85.10
38428;DHT22;24211;49.980;19.776;2022-07-29T07:16:31;26.40;85.90
38428;DHT22;24211;49.980;19.776;2022-07-29T07:18:59;26.70;86.50
38428;DHT22;24211;49.980;19.776;2022-07-29T07:21:27;27.00;86.40
38428;DHT22;24211;49.980;19.776;2022-07-29T07:23:56;27.10;86.10
38428;DHT22;24211;49.980;19.776;2022-07-29T07:26:25;27.20;84.80
38428;DHT22;24211;49.980;19.776;2022-07-29T07:28:53;27.20;84.80
38428;DHT22;24211;49.980;19.776;2022-07-29T07:31:20;27.60;84.80
38428;DHT22;24211;49.980;19.776;2022-07-29T07:33:47;27.80;83.90
38428;DHT22;24211;49.980;19.776;2022-07-29T07:36:14;27.70;83.50
38428;DHT22;24211;49.980;19.776;2022-07-29T07:38:41;27.70;84.50
38428;DHT22;24211;49.980;19.776;2022-07-29T07:41:09;28.10;84.40
38428;DHT22;24211;49.980;19.776;2022-07-29T07:43:36;27.90;83.50
38428;DHT22;24211;49.980;19.776;2022-07-29T07:46:04;28.40;83.80
38428;DHT22;24211;49.980;19.776;2022-07-29T07:48:31;28.40;82.90
38428;DHT22;24211;49.980;19.776;2022-07-29T07:51:02;27.80;83.70
38428;DHT22;24211;49.980;19.776;2022-07-29T07:53:29;27.40;83.70
38428;DHT22;24211;49.980;19.776;2022-07-29T07:55:58;27.60;84.80
38428;DHT22;24211;49.980;19.776;2022-07-29T07:58:42;28.20;84.20
38428;DHT22;24211;49.980;19.776;2022-07-29T08:01:09;27.70;84.90
38428;DHT22;24211;49.980;19.776;2022-07-29T08:03:37;27.90;83.70
38428;DHT22;24211;49.980;19.776;2022-07-29T08:06:06;27.70;83.60
38428;DHT22;24211;49.980;19.776;2022-07-29T08:08:33;28.00;84.00
38428;DHT22;24211;49.980;19.776;2022-07-29T08:11:01;28.20;83.50
38428;DHT22;24211;49.980;19.776;2022-07-29T08:13:37;29.00;81.60
38428;DHT22;24211;49.980;19.776;2022-07-29T08:16:06;28.80;82.70
38428;DHT22;24211;49.980;19.776;2022-07-29T08:18:43;29.30;81.60
38428;DHT22;24211;49.980;19.776;2022-07-29T08:21:13;29.50;81.60
38428;DHT22;24211;49.980;19.776;2022-07-29T08:23:43;29.40;81.10
38428;DHT22;24211;49.980;19.776;2022-07-29T08:26:27;29.20;82.00
38428;DHT22;24211;49.980;19.776;2022-07-29T08:28:54;29.20;81.90
38428;DHT22;24211;49.980;19.776;2022-07-29T08:31:21;29.30;81.80
38428;DHT22;24211;49.980;19.776;2022-07-29T08:33:48;29.50;81.80
38428;DHT22;24211;49.980;19.776;2022-07-29T08:36:16;29.40;80.80
38428;DHT22;24211;49.980;19.776;2022-07-29T08:38:43;29.00;82.80
38428;DHT22;24211;49.980;19.776;2022-07-29T08:41:10;29.00;81.90
38428;DHT22;24211;49.980;19.776;2022-07-29T08:43:40;29.10;81.60
38428;DHT22;24211;49.980;19.776;2022-07-29T08:46:08;28.90;81.90
38428;DHT22;24211;49.980;19.776;2022-07-29T08:48:36;29.50;81.60
38428;DHT22;24211;49.980;19.776;2022-07-29T08:51:03;30.10;81.10
38428;DHT22;24211;49.980;19.776;2022-07-29T08:53:34;29.80;80.80
38428;DHT22;24211;49.980;19.776;2022-07-29T08:56:02;30.60;80.00
38428;DHT22;24211;49.980;19.776;2022-07-29T08:58:32;30.80;80.20
38428;DHT22;24211;49.980;19.776;2022-07-29T09:01:04;30.20;79.30
38428;DHT22;24211;49.980;19.776;2022-07-29T09:03:39;30.40;80.40
38428;DHT22;24211;49.980;19.776;2022-07-29T09:06:07;30.60;80.20
38428;DHT22;24211;49.980;19.776;2022-07-29T09:08:35;30.60;80.50
38428;DHT22;24211;49.980;19.776;2022-07-29T09:11:02;30.90;80.20
38428;DHT22;24211;49.980;19.776;2022-07-29T09:13:31;31.20;78.70
38428;DHT22;24211;49.980;19.776;2022-07-29T09:15:59;30.90;78.30
38428;DHT22;24211;49.980;19.776;2022-07-29T09:18:43;31.00;79.00
38428;DHT22;24211;49.980;19.776;2022-07-29T09:21:16;31.00;78.50
38428;DHT22;24211;49.980;19.776;2022-07-29T09:24:07;31.80;77.90
38428;DHT22;24211;49.980;19.776;2022-07-29T09:26:40;31.40;78.30
38428;DHT22;24211;49.980;19.776;2022-07-29T09:29:14;30.90;77.90
38428;DHT22;24211;49.980;19.776;2022-07-29T09:31:45;30.70;79.50
38428;DHT22;24211;49.980;19.776;2022-07-29T09:34:25;30.80;78.20
38428;DHT22;24211;49.980;19.776;2022-07-29T09:36:55;30.60;80.00
38428;DHT22;24211;49.980;19.776;2022-07-29T09:39:41;30.60;79.60
38428;DHT22;24211;49.980;19.776;2022-07-29T09:42:13;31.10;79.20
38428;DHT22;24211;49.980;19.776;2022-07-29T09:44:43;30.50;78.80
38428;DHT22;24211;49.980;19.776;2022-07-29T09:47:17;30.70;77.80
38428;DHT22;24211;49.980;19.776;2022-07-29T09:49:58;30.70;78.60
38428;DHT22;24211;49.980;19.776;2022-07-29T09:52:28;30.90;79.00
38428;DHT22;24211;49.980;19.776;2022-07-29T09:55:07;31.30;77.00
38428;DHT22;24211;49.980;19.776;2022-07-29T09:57:40;30.80;79.20
38428;DHT22;24211;49.980;19.776;2022-07-29T10:00:09;30.90;79.10
38428;DHT22;24211;49.980;19.776;2022-07-29T10:02:40;30.80;78.20
38428;DHT22;24211;49.980;19.776;2022-07-29T10:05:25;30.90;78.10
38428;DHT22;24211;49.980;19.776;2022-07-29T10:08:03;30.60;78.50
38428;DHT22;24211;49.980;19.776;2022-07-29T10:10:32;30.60;78.50
38428;DHT22;24211;49.980;19.776;2022-07-29T10:13:05;30.50;77.80
38428;DHT22;24211;49.980;19.776;2022-07-29T10:15:44;30.50;79.80
38428;DHT22;24211;49.980;19.776;2022-07-29T10:18:14;31.10;78.30
38428;DHT22;24211;49.980;19.776;2022-07-29T10:20:44;31.10;78.30
38428;DHT22;24211;49.980;19.776;2022-07-29T10:23:12;31.10;77.20
38428;DHT22;24211;49.980;19.776;2022-07-29T10:25:39;31.30;77.70
38428;DHT22;24211;49.980;19.776;2022-07-29T10:28:12;30.80;77.50
38428;DHT22;24211;49.980;19.776;2022-07-29T10:30:44;30.60;77.80
38428;DHT22;24211;49.980;19.776;2022-07-29T10:39:11;30.60;77.50
38428;DHT22;24211;49.980;19.776;2022-07-29T10:42:21;30.70;78.10
38428;DHT22;24211;49.980;19.776;2022-07-29T10:45:01;31.90;77.80
38428;DHT22;24211;49.980;19.776;2022-07-29T10:47:31;32.20;77.60
38428;DHT22;24211;49.980;19.776;2022-07-29T10:50:04;31.40;76.80
38428;DHT22;24211;49.980;19.776;2022-07-29T10:52:53;31.40;76.90
38428;DHT22;24211;49.980;19.776;2022-07-29T10:55:37;31.40;76.40
38428;DHT22;24211;49.980;19.776;2022-07-29T10:58:21;31.50;77.50
38428;DHT22;24211;49.980;19.776;2022-07-29T11:00:53;31.20;77.40
38428;DHT22;24211;49.980;19.776;2022-07-29T11:03:43;31.50;78.00
38428;DHT22;24211;49.980;19.776;2022-07-29T11:06:17;30.90;78.00
38428;DHT22;24211;49.980;19.776;2022-07-29T11:09:16;30.90;78.30
38428;DHT22;24211;49.980;19.776;2022-07-29T11:12:01;30.90;77.50
38428;DHT22;24211;49.980;19.776;2022-07-29T11:17:18;30.70;78.10
38428;DHT22;24211;49.980;19.776;2022-07-29T11:19:47;31.20;77.30
38428;DHT22;24211;49.980;19.776;2022-07-29T11:22:35;31.70;77.50
38428;DHT22;24211;49.980;19.776;2022-07-29T11:25:14;31.50;75.80
38428;DHT22;24211;49.980;19.776;2022-07-29T11:27:46;31.90;76.60
38428;DHT22;24211;49.980;19.776;2022-07-29T11:30:14;32.00;76.70
38428;DHT22;24211;49.980;19.776;2022-07-29T11:32:43;32.80;76.20
38428;DHT22;24211;49.980;19.776;2022-07-29T11:35:19;32.50;74.80
38428;DHT22;24211;49.980;19.776;2022-07-29T11:38:25;32.90;75.10
38428;DHT22;24211;49.980;19.776;2022-07-29T11:43:56;33.00;74.90
38428;DHT22;24211;49.980;19.776;2022-07-29T11:46:48;32.50;74.40
38428;DHT22;24211;49.980;19.776;2022-07-29T11:49:25;33.20;75.40
38428;DHT22;24211;49.980;19.776;2022-07-29T11:51:59;32.90;72.80
38428;DHT22;24211;49.980;19.776;2022-07-29T11:54:50;33.00;74.70
38428;DHT22;24211;49.980;19.776;2022-07-29T11:57:25;34.00;74.10
38428;DHT22;24211;49.980;19.776;2022-07-29T12:00:07;34.10;73.40
38428;DHT22;24211;49.980;19.776;2022-07-29T12:02:42;34.20;72.30
38428;DHT22;24211;49.980;19.776;2022-07-29T12:05:15;33.30;72.60
38428;DHT22;24211;49.980;19.776;2022-07-29T12:08:15;32.60;73.30
38428;DHT22;24211;49.980;19.776;2022-07-29T12:10:47;33.20;73.70
38428;DHT22;24211;49.980;19.776;2022-07-29T12:13:19;33.50;74.10
38428;DHT22;24211;49.980;19.776;2022-07-29T12:15:57;33.70;73.40
38428;DHT22;24211;49.980;19.776;2022-07-29T12:18:27;33.20;73.90
38428;DHT22;24211;49.980;19.776;2022-07-29T12:21:02;33.50;74.00
38428;DHT22;24211;49.980;19.776;2022-07-29T12:23:34;33.80;72.80
38428;DHT22;24211;49.980;19.776;2022-07-29T12:26:04;33.10;73.40
38428;DHT22;24211;49.980;19.776;2022-07-29T12:28:39;33.10;72.90
38428;DHT22;24211;49.980;19.776;2022-07-29T12:31:13;32.30;73.50
38428;DHT22;24211;49.980;19.776;2022-07-29T12:34:02;32.10;75.10
38428;DHT22;24211;49.980;19.776;2022-07-29T12:36:29;32.00;75.50
38428;DHT22;24211;49.980;19.776;2022-07-29T12:38:57;32.70;72.80
38428;DHT22;24211;49.980;19.776;2022-07-29T12:41:24;32.60;74.20
38428;DHT22;24211;49.980;19.776;2022-07-29T12:43:54;33.40;72.40
38428;DHT22;24211;49.980;19.776;2022-07-29T12:46:21;33.20;73.80
38428;DHT22;24211;49.980;19.776;2022-07-29T12:48:54;33.10;74.00
38428;DHT22;24211;49.980;19.776;2022-07-29T12:51:29;33.40;73.30
38428;DHT22;24211;49.980;19.776;2022-07-29T12:54:07;33.40;72.10
38428;DHT22;24211;49.980;19.776;2022-07-29T12:56:44;32.90;73.60
38428;DHT22;24211;49.980;19.776;2022-07-29T12:59:17;32.70;72.10
38428;DHT22;24211;49.980;19.776;2022-07-29T13:01:47;32.10;71.10
38428;DHT22;24211;49.980;19.776;2022-07-29T13:04:30;31.90;73.70
38428;DHT22;24211;49.980;19.776;2022-07-29T13:07:02;31.70;73.50
38428;DHT22;24211;49.980;19.776;2022-07-29T13:09:45;32.60;74.10
38428;DHT22;24211;49.980;19.776;2022-07-29T13:12:14;33.00;73.50
38428;DHT22;24211;49.980;19.776;2022-07-29T13:14:47;33.00;71.50
38428;DHT22;24211;49.980;19.776;2022-07-29T13:17:20;32.50;73.70
38428;DHT22;24211;49.980;19.776;2022-07-29T13:20:07;33.10;73.70
38428;DHT22;24211;49.980;19.776;2022-07-29T13:22:40;33.60;71.20
38428;DHT22;24211;49.980;19.776;2022-07-29T13:25:11;32.80;71.80
38428;DHT22;24211;49.980;19.776;2022-07-29T13:27:39;32.50;73.30
38428;DHT22;24211;49.980;19.776;2022-07-29T13:30:09;32.00;73.30
38428;DHT22;24211;49.980;19.776;2022-07-29T13:32:38;32.70;74.40
38428;DHT22;24211;49.980;19.776;2022-07-29T13:35:07;32.60;72.60
38428;DHT22;24211;49.980;19.776;2022-07-29T13:37:36;31.90;73.70
38428;DHT22;24211;49.980;19.776;2022-07-29T13:40:07;31.30;74.80
38428;DHT22;24211;49.980;19.776;2022-07-29T13:42:36;31.70;74.70
38428;DHT22;24211;49.980;19.776;2022-07-29T13:45:04;32.00;74.80
38428;DHT22;24211;49.980;19.776;2022-07-29T13:47:33;32.60;73.10
38428;DHT22;24211;49.980;19.776;2022-07-29T13:50:01;32.40;73.70
38428;DHT22;24211;49.980;19.776;2022-07-29T13:52:32;32.00;72.90
38428;DHT22;24211;49.980;19.776;2022-07-29T13:55:00;31.70;71.90
38428;DHT22;24211;49.980;19.776;2022-07-29T13:57:28;31.50;73.20
38428;DHT22;24211;49.980;19.776;2022-07-29T13:59:56;31.40;73.20
38428;DHT22;24211;49.980;19.776;2022-07-29T14:02:24;32.20;73.80
38428;DHT22;24211;49.980;19.776;2022-07-29T14:04:53;32.40;72.20
38428;DHT22;24211;49.980;19.776;2022-07-29T14:07:22;31.70;73.50
38428;DHT22;24211;49.980;19.776;2022-07-29T14:09:50;31.70;72.30
38428;DHT22;24211;49.980;19.776;2022-07-29T14:12:18;32.20;73.60
38428;DHT22;24211;49.980;19.776;2022-07-29T14:14:45;32.30;73.70
38428;DHT22;24211;49.980;19.776;2022-07-29T14:17:14;32.70;72.80
38428;DHT22;24211;49.980;19.776;2022-07-29T14:19:42;32.30;72.50
38428;DHT22;24211;49.980;19.776;2022-07-29T14:22:09;31.90;73.80
38428;DHT22;24211;49.980;19.776;2022-07-29T14:24:37;32.30;73.30
38428;DHT22;24211;49.980;19.776;2022-07-29T14:27:06;32.30;70.70
38428;DHT22;24211;49.980;19.776;2022-07-29T14:29:34;31.30;72.90
38428;DHT22;24211;49.980;19.776;2022-07-29T14:32:08;31.50;73.80
38428;DHT22;24211;49.980;19.776;2022-07-29T14:34:37;32.00;73.60
38428;DHT22;24211;49.980;19.776;2022-07-29T14:37:05;31.90;72.00
38428;DHT22;24211;49.980;19.776;2022-07-29T14:39:34;32.30;73.40
38428;DHT22;24211;49.980;19.776;2022-07-29T14:42:10;32.00;72.80
38428;DHT22;24211;49.980;19.776;2022-07-29T14:44:39;32.50;73.00
38428;DHT22;24211;49.980;19.776;2022-07-29T14:47:08;31.90;71.00
38428;DHT22;24211;49.980;19.776;2022-07-29T14:49:36;31.60;72.90
38428;DHT22;24211;49.980;19.776;2022-07-29T14:52:03;31.20;72.40
38428;DHT22;24211;49.980;19.776;2022-07-29T14:54:31;31.70;73.00
38428;DHT22;24211;49.980;19.776;2022-07-29T14:56:58;31.20;73.90
38428;DHT22;24211;49.980;19.776;2022-07-29T14:59:26;31.00;73.70
38428;DHT22;24211;49.980;19.776;2022-07-29T15:01:53;31.60;73.30
38428;DHT22;24211;49.980;19.776;2022-07-29T15:04:21;31.90;73.30
38428;DHT22;24211;49.980;19.776;2022-07-29T15:06:48;31.80;73.30
38428;DHT22;24211;49.980;19.776;2022-07-29T15:09:16;32.00;72.10
38428;DHT22;24211;49.980;19.776;2022-07-29T15:11:44;31.80;71.70
38428;DHT22;24211;49.980;19.776;2022-07-29T15:14:11;31.00;73.60
38428;DHT22;24211;49.980;19.776;2022-07-29T15:16:39;30.80;73.30
38428;DHT22;24211;49.980;19.776;2022-07-29T15:19:10;30.50;74.90
38428;DHT22;24211;49.980;19.776;2022-07-29T15:21:37;30.80;73.90
38428;DHT22;24211;49.980;19.776;2022-07-29T15:24:07;30.80;74.80
38428;DHT22;24211;49.980;19.776;2022-07-29T15:26:34;30.80;74.30
38428;DHT22;24211;49.980;19.776;2022-07-29T15:29:02;29.80;74.90
38428;DHT22;24211;49.980;19.776;2022-07-29T15:31:29;29.50;76.60
38428;DHT22;24211;49.980;19.776;2022-07-29T15:33:57;29.50;76.20
38428;DHT22;24211;49.980;19.776;2022-07-29T15:36:31;29.80;76.20
38428;DHT22;24211;49.980;19.776;2022-07-29T15:39:19;30.50;75.40
38428;DHT22;24211;49.980;19.776;2022-07-29T15:41:48;30.80;75.40
38428;DHT22;24211;49.980;19.776;2022-07-29T15:44:17;31.10;75.30
38428;DHT22;24211;49.980;19.776;2022-07-29T15:46:44;30.80;76.00
38428;DHT22;24211;49.980;19.776;2022-07-29T15:49:30;29.90;77.30
38428;DHT22;24211;49.980;19.776;2022-07-29T15:52:19;29.60;80.80
38428;DHT22;24211;49.980;19.776;2022-07-29T15:54:55;30.00;80.70
38428;DHT22;24211;49.980;19.776;2022-07-29T15:57:24;30.30;80.50
38428;DHT22;24211;49.980;19.776;2022-07-29T15:59:51;30.40;80.20
38428;DHT22;24211;49.980;19.776;2022-07-29T16:02:19;30.50;80.30
38428;DHT22;24211;49.980;19.776;2022-07-29T16:04:46;30.50;83.20